Time;durP1;ratioP1;P1;durP2;ratioP2;P2;SDS_P1;SDS_P2;PMS_P1;PMS_P2;Temp;Humidity;BMP_temperature;BMP_pressure;BME280_temperature;BME280_humidity;BME280_pressure;Samples;Min_cycle;Max_cycle;Signal;HPM_P1;HPM_P2
2022/01/19 00:02:17;;;;;;;0.00;0.00;;;;;;;3.79;100.00;103260.69;10454538;28;20078;-69
2022/01/19 00:07:18;;;;;;;0.00;0.00;;;;;;;3.77;100.00;103246.69;10454508;28;20051;-70
2022/01/19 00:12:18;;;;;;;0.00;0.00;;;;;;;3.75;100.00;103242.38;10454402;28;20173;-69
2022/01/19 00:17:18;;;;;;;0.00;0.00;;;;;;;3.74;100.00;103256.50;10447409;28;20036;-69
2022/01/19 00:22:19;;;;;;;0.00;0.00;;;;;;;3.74;100.00;103259.13;10426991;28;20021;-69
2022/01/19 00:27:19;;;;;;;0.00;0.00;;;;;;;3.74;100.00;103261.75;10412525;28;20033;-69
2022/01/19 00:32:20;;;;;;;0.00;0.00;;;;;;;3.74;100.00;103238.88;10421369;28;20431;-70
2022/01/19 00:37:20;;;;;;;0.00;0.00;;;;;;;3.73;100.00;103225.78;10411390;28;20445;-69
2022/01/19 00:42:20;;;;;;;0.00;0.00;;;;;;;3.71;100.00;103214.44;10412260;28;20036;-69
2022/01/19 00:47:21;;;;;;;0.00;0.00;;;;;;;3.69;100.00;103208.34;10411456;28;20029;-69
2022/01/19 00:52:21;;;;;;;0.00;0.00;;;;;;;3.67;100.00;103195.25;10411837;28;20256;-69
2022/01/19 00:57:22;;;;;;;0.00;0.00;;;;;;;3.66;100.00;103192.66;10409564;28;20017;-69
2022/01/19 01:02:22;;;;;;;0.00;0.00;;;;;;;3.64;100.00;103179.53;10416944;28;20045;-70
2022/01/19 01:07:23;;;;;;;0.00;0.00;;;;;;;3.63;100.00;103178.66;10417932;28;20037;-69
2022/01/19 01:12:31;;;;;;;0.00;0.00;;;;;;;3.59;100.00;103153.34;10410391;28;20484;-70
2022/01/19 01:22:51;;;;;;;0.00;0.00;;;;;;;3.54;100.00;103126.28;10450996;28;20033;-70
2022/01/19 01:27:51;;;;;;;0.00;0.00;;;;;;;3.53;100.00;103137.75;10451020;28;20021;-70
2022/01/19 01:32:52;;;;;;;0.00;0.00;;;;;;;3.51;100.00;103131.69;10415106;28;20070;-70
2022/01/19 01:37:52;;;;;;;0.00;0.00;;;;;;;3.47;100.00;103110.78;10409727;28;20271;-69
2022/01/19 01:42:54;;;;;;;0.00;0.00;;;;;;;3.39;100.00;103103.16;10412476;28;20374;-69
2022/01/19 01:48:18;;;;;;;0.00;0.00;;;;;;;3.37;100.00;103084.78;10409107;28;20260;-69
2022/01/19 01:53:28;;;;;;;0.00;0.00;;;;;;;3.34;100.00;103049.78;10414869;28;20167;-70
2022/01/19 01:58:31;;;;;;;0.00;0.00;;;;;;;3.28;100.00;103006.06;10408345;28;20025;-69
2022/01/19 02:03:37;;;;;;;0.00;0.00;;;;;;;3.23;100.00;102994.88;10444187;28;20115;-69
2022/01/19 02:08:44;;;;;;;0.00;0.00;;;;;;;3.19;100.00;102998.53;10423354;28;20508;-70
2022/01/19 02:24:23;;;;;;;0.00;0.00;;;;;;;3.11;100.00;102959.34;10448534;28;20292;-69
2022/01/19 02:40:11;;;;;;;0.00;0.00;;;;;;;3.08;100.00;102904.13;10412327;28;20436;-69
2022/01/19 02:50:14;;;;;;;0.00;0.00;;;;;;;3.05;100.00;102887.59;10407991;28;20026;-70
2022/01/19 02:55:15;;;;;;;0.00;0.00;;;;;;;3.02;100.00;102867.50;10409907;28;20469;-69
2022/01/19 03:10:54;;;;;;;0.00;0.00;;;;;;;3.01;100.00;102818.41;10407608;28;20484;-69
2022/01/19 03:15:55;;;;;;;0.00;0.00;;;;;;;3.00;100.00;102813.22;10434764;28;20048;-69
2022/01/19 03:20:55;;;;;;;0.00;0.00;;;;;;;2.99;100.00;102809.72;10448266;28;20035;-69
2022/01/19 03:25:57;;;;;;;0.00;0.00;;;;;;;3.01;100.00;102823.69;10448287;28;20116;-69
2022/01/19 03:30:58;;;;;;;0.00;0.00;;;;;;;3.03;100.00;102819.22;10433060;28;20291;-69
2022/01/19 03:35:58;;;;;;;0.00;0.00;;;;;;;3.06;100.00;102812.97;10414679;28;20029;-69
2022/01/19 03:40:58;;;;;;;0.00;0.00;;;;;;;3.05;100.00;102804.19;10414126;28;20048;-69
2022/01/19 03:46:01;;;;;;;0.00;0.00;;;;;;;3.05;100.00;102788.41;10413896;28;20481;-69
2022/01/19 03:51:02;;;;;;;0.00;0.00;;;;;;;3.02;100.00;102792.94;10414001;28;20743;-69
2022/01/19 03:56:03;;;;;;;0.00;0.00;;;;;;;3.00;100.00;102771.97;10413135;28;20051;-69
2022/01/19 04:01:05;;;;;;;0.00;0.00;;;;;;;2.99;100.00;102757.06;10413712;28;20028;-70
2022/01/19 04:06:22;;;;;;;0.00;0.00;;;;;;;3.00;100.00;102752.69;10417396;28;20025;-69
2022/01/19 04:11:25;;;;;;;0.00;0.00;;;;;;;3.00;100.00;102737.75;10413923;28;20041;-69
2022/01/19 04:16:26;;;;;;;0.00;0.00;;;;;;;3.01;100.00;102714.91;10410297;28;20170;-69
2022/01/19 04:21:26;;;;;;;0.00;0.00;;;;;;;2.99;100.00;102714.09;10412134;28;20032;-70
2022/01/19 04:26:26;;;;;;;0.00;0.00;;;;;;;2.96;100.00;102720.34;10412328;28;20017;-69
2022/01/19 04:31:27;;;;;;;0.00;0.00;;;;;;;2.95;100.00;102729.16;10412801;28;20013;-70
2022/01/19 04:36:33;;;;;;;0.00;0.00;;;;;;;2.92;100.00;102716.97;10413422;28;20381;-69
2022/01/19 05:07:57;;;;;;;0.00;0.00;;;;;;;2.86;100.00;102671.63;10418152;28;20116;-69
2022/01/19 05:18:17;;;;;;;0.00;0.00;;;;;;;2.87;100.00;102645.25;10422913;28;20131;-69
2022/01/19 05:23:18;;;;;;;0.00;0.00;;;;;;;2.88;100.00;102638.19;10416097;28;20140;-69
2022/01/19 05:28:18;;;;;;;0.00;0.00;;;;;;;2.89;100.00;102639.94;10427986;28;20537;-69
2022/01/19 05:33:19;;;;;;;0.00;0.00;;;;;;;2.90;100.00;102617.94;10426734;28;20017;-69
2022/01/19 05:38:19;;;;;;;0.00;0.00;;;;;;;2.90;100.00;102604.78;10435988;28;20028;-69
2022/01/19 05:43:19;;;;;;;0.00;0.00;;;;;;;2.90;100.00;102595.09;10422529;28;20492;-69
2022/01/19 05:48:20;;;;;;;0.00;0.00;;;;;;;2.92;100.00;102572.22;10420856;28;20021;-69
2022/01/19 05:53:20;;;;;;;0.00;0.00;;;;;;;2.93;100.00;102573.06;10423240;28;20389;-69
2022/01/19 05:58:20;;;;;;;0.00;0.00;;;;;;;2.93;100.00;102568.63;10417755;28;20017;-69
2022/01/19 06:03:21;;;;;;;0.00;0.00;;;;;;;2.95;100.00;102561.53;10419493;28;20024;-69
2022/01/19 06:13:25;;;;;;;0.00;0.00;;;;;;;3.01;100.00;102539.34;10423020;28;20510;-69
2022/01/19 06:18:25;;;;;;;0.00;0.00;;;;;;;3.05;100.00;102540.06;10416417;28;20465;-69
2022/01/19 06:23:25;;;;;;;0.00;0.00;;;;;;;3.09;100.00;102563.56;10415241;28;20029;-69
2022/01/19 06:28:26;;;;;;;0.00;0.00;;;;;;;3.14;100.00;102564.22;10429545;28;20061;-69
2022/01/19 06:33:26;;;;;;;0.00;0.00;;;;;;;3.19;100.00;102561.38;10435813;28;20735;-69
2022/01/19 06:38:26;;;;;;;0.00;0.00;;;;;;;3.23;100.00;102544.53;10418326;28;20032;-69
2022/01/19 06:43:27;;;;;;;0.00;0.00;;;;;;;3.26;100.00;102540.88;10419514;28;20033;-69
2022/01/19 06:48:27;;;;;;;0.00;0.00;;;;;;;3.27;100.00;102527.66;10431507;28;20099;-69
2022/01/19 06:53:27;;;;;;;0.00;0.00;;;;;;;3.29;100.00;102522.31;10434006;28;20032;-70
2022/01/19 06:58:28;;;;;;;0.00;0.00;;;;;;;3.31;100.00;102525.72;10446646;28;20267;-69
2022/01/19 07:03:31;;;;;;;0.00;0.00;;;;;;;3.31;100.00;102504.66;10456218;28;20039;-69
2022/01/19 07:08:32;;;;;;;0.00;0.00;;;;;;;3.31;100.00;102500.22;10458152;28;20058;-69
2022/01/19 07:13:33;;;;;;;0.00;0.00;;;;;;;3.34;100.00;102496.59;10457591;28;20128;-69
2022/01/19 07:18:33;;;;;;;0.00;0.00;;;;;;;3.36;100.00;102486.88;10457654;28;20025;-70
2022/01/19 07:23:33;;;;;;;0.00;0.00;;;;;;;3.36;100.00;102478.97;10457192;28;20029;-70
2022/01/19 07:28:34;;;;;;;0.00;0.00;;;;;;;3.38;100.00;102474.47;10457422;28;20027;-69
2022/01/19 07:33:34;;;;;;;0.00;0.00;;;;;;;3.38;100.00;102470.06;10457035;28;20360;-69
2022/01/19 07:38:34;;;;;;;0.00;0.00;;;;;;;3.39;100.00;102455.09;10456354;28;20263;-70
2022/01/19 07:43:35;;;;;;;0.00;0.00;;;;;;;3.38;100.00;102419.16;10456720;28;20083;-70
2022/01/19 07:48:35;;;;;;;0.00;0.00;;;;;;;3.38;100.00;102433.19;10456297;28;20029;-69
2022/01/19 07:53:36;;;;;;;0.00;0.00;;;;;;;3.39;100.00;102424.34;10456473;28;20029;-69
2022/01/19 07:58:37;;;;;;;0.00;0.00;;;;;;;3.37;100.00;102405.16;10455996;28;20060;-69
2022/01/19 08:03:37;;;;;;;0.00;0.00;;;;;;;3.40;100.00;102404.13;10455821;28;20017;-70
2022/01/19 08:08:37;;;;;;;0.00;0.00;;;;;;;3.44;100.00;102396.94;10455804;28;20041;-70
2022/01/19 08:13:38;;;;;;;0.00;0.00;;;;;;;3.47;100.00;102384.47;10454636;28;20330;-70
2022/01/19 08:18:38;;;;;;;0.00;0.00;;;;;;;3.51;100.00;102377.25;10455580;28;20048;-69
2022/01/19 08:23:38;;;;;;;0.00;0.00;;;;;;;3.52;100.00;102366.66;10455191;28;20434;-71
2022/01/19 08:28:39;;;;;;;0.00;0.00;;;;;;;3.56;100.00;102352.41;10454821;28;20025;-70
2022/01/19 08:33:39;;;;;;;0.00;0.00;;;;;;;3.57;100.00;102340.91;10454799;28;20021;-70
2022/01/19 08:38:42;;;;;;;0.00;0.00;;;;;;;3.59;100.00;102336.44;10451989;28;20375;-71
2022/01/19 08:43:42;;;;;;;0.00;0.00;;;;;;;3.61;100.00;102328.47;10452103;28;20654;-71
2022/01/19 08:48:42;;;;;;;0.00;0.00;;;;;;;3.62;100.00;102291.47;10454489;28;20021;-70
2022/01/19 08:53:43;;;;;;;0.00;0.00;;;;;;;3.68;100.00;102300.00;10454362;28;20036;-69
2022/01/19 08:58:43;;;;;;;0.00;0.00;;;;;;;3.70;100.00;102295.53;10453797;28;20063;-69
2022/01/19 09:03:43;;;;;;;0.00;0.00;;;;;;;3.74;100.00;102291.78;10453502;28;20024;-70
2022/01/19 09:08:44;;;;;;;0.00;0.00;;;;;;;3.76;100.00;102293.41;10453605;28;20526;-70
2022/01/19 09:13:44;;;;;;;0.00;0.00;;;;;;;3.79;100.00;102284.50;10427178;28;20489;-70
2022/01/19 09:18:44;;;;;;;0.00;0.00;;;;;;;3.82;100.00;102265.91;10421040;28;20363;-70
2022/01/19 09:23:45;;;;;;;0.00;0.00;;;;;;;3.89;100.00;102246.16;10450352;28;20013;-70
2022/01/19 09:28:45;;;;;;;0.00;0.00;;;;;;;3.93;100.00;102239.81;10449527;28;20028;-69
2022/01/19 09:33:55;;;;;;;0.00;0.00;;;;;;;3.96;100.00;102237.03;10445628;28;20036;-69
2022/01/19 09:38:56;;;;;;;0.00;0.00;;;;;;;3.97;100.00;102228.16;10441740;28;20056;-70
2022/01/19 09:43:57;;;;;;;0.00;0.00;;;;;;;3.96;100.00;102213.28;10440464;28;20663;-70
2022/01/19 09:48:58;;;;;;;0.00;0.00;;;;;;;3.99;100.00;102210.50;10433854;28;20033;-70
2022/01/19 09:53:58;;;;;;;0.00;0.00;;;;;;;4.03;100.00;102204.09;10441730;28;20082;-70
2022/01/19 09:58:58;;;;;;;0.00;0.00;;;;;;;4.05;100.00;102204.88;10439963;28;20078;-70
2022/01/19 10:04:15;;;;;;;0.00;0.00;;;;;;;4.05;100.00;102185.59;10446621;28;20017;-68
2022/01/19 10:09:23;;;;;;;0.00;0.00;;;;;;;4.03;100.00;102185.66;10450269;28;20050;-69
2022/01/19 10:19:45;;;;;;;0.00;0.00;;;;;;;4.01;100.00;102158.50;10440127;28;20411;-70
2022/01/19 10:25:11;;;;;;;0.00;0.00;;;;;;;4.01;100.00;102149.75;10423833;28;20049;-69
2022/01/19 10:30:19;;;;;;;0.00;0.00;;;;;;;3.99;100.00;102149.84;10429871;28;20041;-68
2022/01/19 10:35:27;;;;;;;0.00;0.00;;;;;;;3.96;100.00;102147.38;10422694;28;20076;-69
2022/01/19 10:40:27;;;;;;;0.00;0.00;;;;;;;3.95;100.00;102134.28;10420819;28;20112;-70
2022/01/19 10:45:32;;;;;;;0.00;0.00;;;;;;;3.91;100.00;102116.94;10416010;28;20201;-69
2022/01/19 10:50:33;;;;;;;0.00;0.00;;;;;;;3.87;100.00;102105.72;10426308;28;20052;-70
2022/01/19 10:55:40;;;;;;;0.00;0.00;;;;;;;3.84;100.00;102098.81;10418246;28;20127;-69
2022/01/19 11:00:51;;;;;;;0.00;0.00;;;;;;;3.81;100.00;102085.81;10424232;28;20039;-70
2022/01/19 11:06:08;;;;;;;0.00;0.00;;;;;;;3.79;100.00;102092.09;10423316;28;20029;-70
2022/01/19 11:11:08;;;;;;;0.00;0.00;;;;;;;3.81;100.00;102062.09;10428848;28;20488;-69
2022/01/19 11:16:09;;;;;;;0.00;0.00;;;;;;;3.88;100.00;102044.16;10432950;28;20049;-69
2022/01/19 11:21:11;;;;;;;0.00;0.00;;;;;;;3.92;100.00;102040.38;10413502;28;20432;-70
2022/01/19 11:26:16;;;;;;;0.00;0.00;;;;;;;3.91;100.00;102007.06;10431702;28;20026;-70
2022/01/19 11:31:35;;;;;;;0.00;0.00;;;;;;;3.91;100.00;101993.03;10415093;28;20468;-70
2022/01/19 11:36:42;;;;;;;0.00;0.00;;;;;;;3.89;100.00;101979.09;10419361;28;20028;-70
2022/01/19 11:41:42;;;;;;;0.00;0.00;;;;;;;3.94;100.00;101956.81;10414762;28;20030;-69
2022/01/19 11:46:49;;;;;;;0.00;0.00;;;;;;;3.91;100.00;101945.59;10415856;28;20384;-69
2022/01/19 11:51:55;;;;;;;0.00;0.00;;;;;;;3.82;100.00;101937.28;10428847;28;20418;-70
2022/01/19 11:56:58;;;;;;;0.00;0.00;;;;;;;3.75;100.00;101933.31;10423712;28;20116;-69
2022/01/19 12:02:20;;;;;;;0.00;0.00;;;;;;;3.63;100.00;101911.13;10392283;22;20035;-68
2022/01/19 12:07:40;;;;;;;0.00;0.00;;;;;;;3.54;100.00;101908.16;10353474;28;20026;-67
2022/01/19 12:13:06;;;;;;;0.00;0.00;;;;;;;3.43;100.00;101914.03;10346863;28;20022;-68
2022/01/19 12:18:10;;;;;;;0.00;0.00;;;;;;;3.36;100.00;101891.63;10345658;28;20034;-68
2022/01/19 12:23:34;;;;;;;0.00;0.00;;;;;;;3.30;100.00;101882.28;10358452;28;20026;-69
2022/01/19 12:28:44;;;;;;;0.00;0.00;;;;;;;3.28;100.00;101851.69;10343601;28;20397;-68
2022/01/19 12:34:06;;;;;;;0.00;0.00;;;;;;;3.26;100.00;101843.91;10344407;28;20054;-68
2022/01/19 12:39:24;;;;;;;0.00;0.00;;;;;;;3.24;100.00;101834.38;10345558;28;20035;-68
2022/01/19 12:44:40;;;;;;;0.00;0.00;;;;;;;3.26;100.00;101808.78;10347674;28;20053;-67
2022/01/19 12:49:41;;;;;;;0.00;0.00;;;;;;;3.26;100.00;101803.53;10354133;28;20057;-68
2022/01/19 12:54:41;;;;;;;0.00;0.00;;;;;;;3.27;100.00;101787.66;10347423;28;20060;-68
2022/01/19 12:59:44;;;;;;;0.00;0.00;;;;;;;3.26;100.00;101767.53;10351560;28;20347;-67
2022/01/19 13:04:47;;;;;;;0.00;0.00;;;;;;;3.26;100.00;101757.00;10347355;28;20018;-67
2022/01/19 13:10:17;;;;;;;0.00;0.00;;;;;;;3.27;100.00;101745.53;10339594;28;20041;-68
2022/01/19 13:15:18;;;;;;;0.00;0.00;;;;;;;3.28;100.00;101725.31;10353874;28;20026;-68
2022/01/19 13:20:21;;;;;;;0.00;0.00;;;;;;;3.30;100.00;101700.59;10348170;28;20543;-67
2022/01/19 13:25:27;;;;;;;0.00;0.00;;;;;;;3.34;100.00;101682.81;10346483;28;20429;-68
2022/01/19 13:30:32;;;;;;;0.00;0.00;;;;;;;3.38;100.00;101663.25;10362640;28;20026;-68
2022/01/19 13:35:32;;;;;;;0.00;0.00;;;;;;;3.42;100.00;101646.31;10352436;28;20477;-67
2022/01/19 13:40:33;;;;;;;0.00;0.00;;;;;;;3.45;100.00;101642.66;10343827;28;20279;-67
2022/01/19 13:45:48;;;;;;;0.00;0.00;;;;;;;3.45;100.00;101627.69;10346008;28;20575;-67
2022/01/19 13:51:02;;;;;;;0.00;0.00;;;;;;;3.45;100.00;101626.88;10352177;28;20030;-67
2022/01/19 13:56:06;;;;;;;0.00;0.00;;;;;;;3.47;100.00;101609.19;10359664;28;20026;-68
2022/01/19 14:01:13;;;;;;;0.00;0.00;;;;;;;3.44;100.00;101599.69;10343630;28;20054;-67
2022/01/19 14:06:25;;;;;;;0.00;0.00;;;;;;;3.45;100.00;101579.47;10345954;28;20032;-67
2022/01/19 14:11:26;;;;;;;0.00;0.00;;;;;;;3.44;100.00;101568.06;10335464;28;20022;-68
2022/01/19 14:16:32;;;;;;;0.00;0.00;;;;;;;3.44;100.00;101541.75;10342610;28;20064;-68
2022/01/19 14:21:33;;;;;;;0.00;0.00;;;;;;;3.44;100.00;101541.75;10334262;28;20034;-68
2022/01/19 14:26:34;;;;;;;0.00;0.00;;;;;;;3.45;100.00;101543.41;10346383;28;20394;-67
2022/01/19 14:31:34;;;;;;;0.00;0.00;;;;;;;3.45;100.00;101522.34;10348498;28;20033;-67
2022/01/19 14:36:35;;;;;;;0.00;0.00;;;;;;;3.45;100.00;101505.72;10350122;28;20253;-67
2022/01/19 14:41:37;;;;;;;0.00;0.00;;;;;;;3.45;100.00;101505.72;10353049;28;20026;-68
2022/01/19 14:46:55;;;;;;;0.00;0.00;;;;;;;3.45;100.00;101490.75;10344307;28;20068;-67
2022/01/19 14:51:56;;;;;;;0.00;0.00;;;;;;;3.42;100.00;101475.13;10347872;28;20553;-68
2022/01/19 14:56:56;;;;;;;0.00;0.00;;;;;;;3.39;100.00;101464.81;10358559;28;20188;-68
2022/01/19 15:01:59;;;;;;;0.00;0.00;;;;;;;3.34;100.00;101449.28;10352640;28;20072;-68
2022/01/19 15:07:02;;;;;;;0.00;0.00;;;;;;;3.32;100.00;101447.72;10338417;28;20060;-67
2022/01/19 15:12:03;;;;;;;0.00;0.00;;;;;;;3.30;100.00;101444.31;10350697;28;20073;-67
2022/01/19 15:17:03;;;;;;;0.00;0.00;;;;;;;3.28;100.00;101441.78;10354452;28;20022;-68
2022/01/19 15:22:04;;;;;;;0.00;0.00;;;;;;;3.25;100.00;101444.59;10339646;28;20034;-67
2022/01/19 15:27:04;;;;;;;0.00;0.00;;;;;;;3.24;100.00;101452.63;10351450;28;20038;-67
2022/01/19 15:32:05;;;;;;;0.00;0.00;;;;;;;3.24;100.00;101460.50;10349443;28;20030;-68
2022/01/19 15:37:05;;;;;;;0.00;0.00;;;;;;;3.24;100.00;101440.28;10367708;28;20496;-68
2022/01/19 15:42:06;;;;;;;0.00;0.00;;;;;;;3.24;100.00;101436.81;10362012;28;20025;-68
2022/01/19 15:47:07;;;;;;;0.00;0.00;;;;;;;3.23;100.00;101435.09;10351153;28;20404;-68
2022/01/19 15:52:08;;;;;;;0.00;0.00;;;;;;;3.22;100.00;101415.00;10358098;28;20018;-66
2022/01/19 15:57:08;;;;;;;0.00;0.00;;;;;;;3.23;100.00;101416.69;10370551;28;20057;-67
2022/01/19 16:02:08;;;;;;;0.00;0.00;;;;;;;3.20;100.00;101383.50;10349932;28;20508;-68
2022/01/19 16:07:10;;;;;;;0.00;0.00;;;;;;;3.23;100.00;101371.91;10356725;28;20469;-68
2022/01/19 16:12:10;;;;;;;0.00;0.00;;;;;;;3.26;100.00;101371.72;10356639;28;20446;-67
2022/01/19 16:17:11;;;;;;;0.00;0.00;;;;;;;3.26;100.00;101367.31;10352116;28;20113;-67
2022/01/19 16:27:30;;;;;;;0.00;0.00;;;;;;;3.30;100.00;101346.91;10364426;28;20034;-68
2022/01/19 16:32:31;;;;;;;0.00;0.00;;;;;;;3.32;100.00;101347.66;10349806;28;20389;-67
2022/01/19 16:37:31;;;;;;;0.00;0.00;;;;;;;3.37;100.00;101340.28;10346990;28;20030;-68
2022/01/19 16:42:31;;;;;;;0.00;0.00;;;;;;;3.38;100.00;101336.72;10350739;28;20053;-67
2022/01/19 16:47:37;;;;;;;0.00;0.00;;;;;;;3.40;100.00;101335.69;10357483;28;20175;-68
2022/01/19 16:52:40;;;;;;;0.00;0.00;;;;;;;3.45;100.00;101327.47;10365266;28;20512;-68
2022/01/19 16:57:40;;;;;;;0.00;0.00;;;;;;;3.46;100.00;101317.75;10340960;28;20171;-67
2022/01/19 17:02:41;;;;;;;0.00;0.00;;;;;;;3.47;100.00;101309.78;10347571;28;20604;-66
2022/01/19 17:07:41;;;;;;;0.00;0.00;;;;;;;3.48;100.00;101300.91;10351218;28;20273;-67
2022/01/19 17:12:42;;;;;;;0.00;0.00;;;;;;;3.52;100.00;101310.31;10355118;28;20010;-67
2022/01/19 17:17:47;;;;;;;0.00;0.00;;;;;;;3.56;100.00;101305.69;10350933;28;20300;-68
2022/01/19 17:22:47;;;;;;;0.00;0.00;;;;;;;3.59;100.00;101297.56;10347733;28;20105;-68
2022/01/19 17:27:50;;;;;;;0.00;0.00;;;;;;;3.63;100.00;101273.53;10349077;28;20034;-67
2022/01/19 17:32:50;;;;;;;0.00;0.00;;;;;;;3.67;100.00;101258.41;10365478;28;20018;-68
2022/01/19 17:37:50;;;;;;;0.00;0.00;;;;;;;3.75;100.00;101264.00;10348389;28;20077;-68
2022/01/19 17:42:53;;;;;;;0.00;0.00;;;;;;;3.82;100.00;101253.88;10345732;28;20046;-69
2022/01/19 17:48:02;;;;;;;0.00;0.00;;;;;;;3.89;100.00;101244.56;10345366;28;20077;-67
2022/01/19 17:53:02;;;;;;;0.00;0.00;;;;;;;3.92;100.00;101235.63;10346297;28;20014;-68
2022/01/19 17:58:05;;;;;;;0.00;0.00;;;;;;;4.00;100.00;101238.56;10347319;28;20029;-68
2022/01/19 18:03:05;;;;;;;0.00;0.00;;;;;;;4.05;100.00;101221.50;10370948;22;20033;-69
2022/01/19 18:08:06;;;;;;;0.00;0.00;;;;;;;4.11;100.00;101222.03;10365249;28;20022;-69
2022/01/19 18:13:06;;;;;;;0.00;0.00;;;;;;;4.14;100.00;101227.06;10368203;28;20021;-70
2022/01/19 18:18:07;;;;;;;0.00;0.00;;;;;;;4.18;100.00;101225.91;10361435;28;20025;-70
2022/01/19 18:23:07;;;;;;;0.00;0.00;;;;;;;4.23;100.00;101229.91;10367675;28;20076;-70
2022/01/19 18:28:07;;;;;;;0.00;0.00;;;;;;;4.26;100.00;101229.69;10367640;28;20022;-70
2022/01/19 18:33:08;;;;;;;0.00;0.00;;;;;;;4.30;100.00;101241.72;10367256;28;20010;-70
2022/01/19 18:38:10;;;;;;;0.00;0.00;;;;;;;4.36;100.00;101240.41;10360594;28;20034;-70
2022/01/19 18:43:10;;;;;;;0.00;0.00;;;;;;;4.40;100.00;101236.63;10368053;28;20018;-70
2022/01/19 18:48:12;;;;;;;0.00;0.00;;;;;;;4.45;100.00;101247.69;10358820;28;20030;-70
2022/01/19 18:53:13;;;;;;;0.00;0.00;;;;;;;4.54;100.00;101249.66;10367042;28;20261;-70
2022/01/19 18:58:14;;;;;;;0.00;0.00;;;;;;;4.66;100.00;101273.50;10370964;28;20029;-70
2022/01/19 19:03:16;;;;;;;0.00;0.00;;;;;;;4.68;100.00;101271.56;10375122;28;20480;-71
2022/01/19 19:08:17;;;;;;;0.00;0.00;;;;;;;4.73;100.00;101282.63;10374473;28;20033;-71
2022/01/19 19:13:17;;;;;;;0.00;0.00;;;;;;;4.71;100.00;101289.81;10375039;28;20389;-72
2022/01/19 19:18:18;;;;;;;0.00;0.00;;;;;;;4.64;100.00;101289.41;10366774;28;20092;-72
2022/01/19 19:23:18;;;;;;;0.00;0.00;;;;;;;4.58;100.00;101292.50;10374239;28;20018;-72
2022/01/19 19:28:19;;;;;;;0.00;0.00;;;;;;;4.50;100.00;101302.75;10374234;28;20449;-72
2022/01/19 19:33:19;;;;;;;0.00;0.00;;;;;;;4.41;100.00;101303.41;10373935;28;20684;-73
2022/01/19 19:38:20;;;;;;;0.00;0.00;;;;;;;4.32;100.00;101300.44;10373982;28;20029;-73
2022/01/19 19:43:20;;;;;;;0.00;0.00;;;;;;;4.28;100.00;101313.97;10373541;28;20044;-72
2022/01/19 19:48:21;;;;;;;0.00;0.00;;;;;;;4.26;100.00;101331.69;10366150;28;20040;-73
2022/01/19 19:53:21;;;;;;;0.00;0.00;;;;;;;4.25;100.00;101341.41;10372524;28;20265;-72
2022/01/19 19:58:21;;;;;;;0.05;0.05;;;;;;;4.19;100.00;101323.38;10372738;28;20124;-73
2022/01/19 20:03:23;;;;;;;0.00;0.00;;;;;;;4.18;100.00;101337.47;10372862;28;20026;-73
2022/01/19 20:08:24;;;;;;;0.00;0.00;;;;;;;4.11;100.00;101335.38;10371691;28;20030;-72
2022/01/19 20:13:24;;;;;;;0.00;0.00;;;;;;;4.06;100.00;101340.97;10372442;28;20357;-72
2022/01/19 20:18:25;;;;;;;0.00;0.00;;;;;;;4.01;100.00;101351.81;10363576;28;20018;-71
2022/01/19 20:23:25;;;;;;;0.00;0.00;;;;;;;3.97;100.00;101350.34;10372157;28;20029;-72
2022/01/19 20:28:26;;;;;;;0.00;0.00;;;;;;;3.88;100.00;101353.59;10371988;28;20065;-72
2022/01/19 20:33:27;;;;;;;0.00;0.00;;;;;;;3.76;100.00;101378.13;10371947;28;20026;-72
2022/01/19 20:38:27;;;;;;;0.00;0.00;;;;;;;3.68;100.00;101369.88;10371708;28;20292;-72
2022/01/19 20:43:29;;;;;;;0.00;0.00;;;;;;;3.63;100.00;101384.19;10371302;28;20041;-71
2022/01/19 20:48:29;;;;;;;0.00;0.00;;;;;;;3.59;100.00;101381.88;10365155;28;20395;-71
2022/01/19 20:53:29;;;;;;;0.00;0.00;;;;;;;3.50;100.00;101408.81;10371009;28;20028;-72
2022/01/19 20:58:30;;;;;;;0.00;0.00;;;;;;;3.43;100.00;101400.44;10370486;28;20400;-71
2022/01/19 21:03:30;;;;;;;0.00;0.00;;;;;;;3.38;100.00;101394.66;10370533;28;20030;-71
2022/01/19 21:08:30;;;;;;;0.00;0.00;;;;;;;3.40;100.00;101406.78;10370262;28;20029;-71
2022/01/19 21:13:33;;;;;;;0.00;0.00;;;;;;;3.46;100.00;101397.63;10369984;28;20265;-71
2022/01/19 21:18:33;;;;;;;0.00;0.00;;;;;;;3.56;100.00;101414.53;10361742;28;20021;-71
2022/01/19 21:23:34;;;;;;;0.00;0.00;;;;;;;3.71;100.00;101436.38;10369757;28;20536;-71
2022/01/19 21:28:35;;;;;;;0.00;0.00;;;;;;;3.58;100.00;101467.13;10369444;28;20026;-72
2022/01/19 21:33:36;;;;;;;0.00;0.00;;;;;;;3.06;100.00;101504.63;10333879;28;20031;-72
2022/01/19 21:38:37;;;;;;;0.00;0.00;;;;;;;2.85;100.00;101455.00;10364186;28;20069;-72
2022/01/19 21:43:38;;;;;;;0.00;0.00;;;;;;;2.68;100.00;101463.91;10369051;28;20018;-72
2022/01/19 21:48:39;;;;;;;0.00;0.00;;;;;;;2.56;100.00;101464.66;10365998;28;20029;-72
2022/01/19 21:53:39;;;;;;;0.00;0.00;;;;;;;2.57;100.00;101460.22;10368814;28;20420;-72
2022/01/19 21:58:40;;;;;;;0.00;0.00;;;;;;;2.56;100.00;101472.53;10369533;28;20018;-72
2022/01/19 22:03:40;;;;;;;0.00;0.00;;;;;;;2.60;100.00;101481.94;10366677;28;20022;-72
2022/01/19 22:08:40;;;;;;;0.00;0.00;;;;;;;2.60;100.00;101492.44;10368402;28;20032;-72
2022/01/19 22:13:40;;;;;;;0.00;0.00;;;;;;;2.60;100.00;101497.72;10368428;28;20265;-72
2022/01/19 22:18:41;;;;;;;0.00;0.00;;;;;;;2.59;100.00;101506.56;10363920;28;20029;-72
2022/01/19 22:23:41;;;;;;;0.00;0.00;;;;;;;2.61;100.00;101504.66;10367755;28;20072;-73
2022/01/19 22:28:42;;;;;;;0.00;0.00;;;;;;;2.64;100.00;101501.00;10367665;28;20021;-72
2022/01/19 22:33:42;;;;;;;0.00;0.00;;;;;;;2.64;100.00;101501.84;10366993;28;20068;-72
2022/01/19 22:38:43;;;;;;;0.00;0.00;;;;;;;2.58;100.00;101510.09;10367453;28;20456;-72
2022/01/19 22:43:43;;;;;;;0.00;0.00;;;;;;;2.46;100.00;101526.59;10367726;28;20068;-72
2022/01/19 22:48:44;;;;;;;0.00;0.00;;;;;;;2.39;100.00;101533.16;10363051;28;20370;-73
2022/01/19 22:53:47;;;;;;;0.00;0.00;;;;;;;2.28;100.00;101535.56;10367015;28;20097;-72
2022/01/19 22:58:47;;;;;;;0.00;0.00;;;;;;;2.20;100.00;101546.50;10367334;28;20066;-71
2022/01/19 23:03:48;;;;;;;0.00;0.00;;;;;;;2.04;100.00;101525.53;10367178;28;20045;-73
2022/01/19 23:08:48;;;;;;;0.00;0.00;;;;;;;1.90;100.00;101533.34;10366772;28;20022;-72
2022/01/19 23:13:50;;;;;;;0.00;0.00;;;;;;;1.80;100.00;101527.72;10367153;28;20014;-74
2022/01/19 23:18:51;;;;;;;0.00;0.00;;;;;;;1.69;100.00;101530.97;10363433;28;20253;-71
2022/01/19 23:23:52;;;;;;;0.00;0.00;;;;;;;1.58;100.00;101522.81;10366410;28;20559;-71
2022/01/19 23:28:52;;;;;;;0.00;0.00;;;;;;;1.51;100.00;101522.31;10366250;28;20080;-71
2022/01/19 23:33:52;;;;;;;0.00;0.00;;;;;;;1.49;100.00;101500.56;10366425;28;20319;-72
2022/01/19 23:39:10;;;;;;;0.00;0.00;;;;;;;1.41;100.00;101494.03;10366863;28;20050;-72
2022/01/19 23:49:29;;;;;;;0.00;0.00;;;;;;;1.29;100.00;101479.78;10368884;28;20022;-72
2022/01/19 23:54:30;;;;;;;0.00;0.00;;;;;;;1.28;100.00;101481.56;10373267;28;20461;-72
2022/01/19 23:59:38;;;;;;;0.00;0.00;;;;;;;1.26;100.00;101499.16;10373188;28;20456;-72
